Time;durP1;ratioP1;P1;durP2;ratioP2;P2;SDS_P1;SDS_P2;PMS_P1;PMS_P2;Temp;Humidity;BMP_temperature;BMP_pressure;BME280_temperature;BME280_humidity;BME280_pressure;Samples;Min_cycle;Max_cycle;Signal;HPM_P1;HPM_P2
2022/08/15 00:00:42;;;;;;;;;8.50;8.00;;;;;22.64;59.05;100315.34;5076782;27;45614;-84
2022/08/15 00:03:28;;;;;;;;;10.75;10.00;;;;;22.58;58.98;100309.63;5059548;28;47436;-85
2022/08/15 00:05:55;;;;;;;;;14.00;10.00;;;;;22.55;58.83;100298.44;5075879;27;45382;-85
2022/08/15 00:08:21;;;;;;;;;12.75;11.25;;;;;22.61;58.90;100305.84;5077547;27;45327;-84
2022/08/15 00:10:48;;;;;;;;;10.50;10.50;;;;;22.66;59.33;100311.59;5076533;27;45352;-84
2022/08/15 00:13:19;;;;;;;;;12.00;10.25;;;;;22.59;59.03;100303.31;5076351;27;45966;-84
2022/08/15 00:15:46;;;;;;;;;10.50;9.50;;;;;22.65;59.35;100317.03;5075937;28;46024;-85
2022/08/15 00:18:13;;;;;;;;;11.25;10.50;;;;;22.63;58.85;100306.56;5077024;27;45375;-84
2022/08/15 00:20:39;;;;;;;;;12.25;10.50;;;;;22.72;58.66;100305.75;5078055;27;45443;-84
2022/08/15 00:23:09;;;;;;;;;18.25;13.25;;;;;22.72;58.96;100307.56;5077527;27;46291;-84
2022/08/15 00:25:37;;;;;;;;;10.75;9.50;;;;;22.68;59.09;100303.47;5076863;28;45342;-83
2022/08/15 00:28:06;;;;;;;;;17.25;14.00;;;;;22.65;58.86;100299.28;5078375;27;45284;-84
2022/08/15 00:30:33;;;;;;;;;17.75;15.50;;;;;22.63;58.64;100297.75;5059452;28;45328;-83
2022/08/15 00:32:58;;;;;;;;;17.50;15.00;;;;;22.56;58.51;100300.91;5076302;27;45760;-83
2022/08/15 00:35:36;;;;;;;;;20.25;15.50;;;;;22.57;59.10;100301.78;5076973;27;45338;-83
2022/08/15 00:38:03;;;;;;;;;14.75;12.50;;;;;22.48;59.21;100300.75;5076839;27;45355;-83
2022/08/15 00:40:30;;;;;;;;;21.75;16.00;;;;;22.50;58.95;100292.66;5076248;27;45396;-84
2022/08/15 00:42:55;;;;;;;;;16.50;14.50;;;;;22.50;58.86;100304.13;5077270;27;45984;-84
2022/08/15 00:45:22;;;;;;;;;14.75;14.75;;;;;22.44;59.28;100302.00;5077530;27;45328;-83
2022/08/15 00:48:41;;;;;;;;;19.00;13.75;;;;;22.43;59.29;100302.97;5076178;28;45560;-84
2022/08/15 00:50:33;;;;;;;;;18.25;16.25;;;;;22.41;59.46;100302.25;5075770;28;45476;-84
2022/08/15 00:53:03;;;;;;;;;17.75;16.00;;;;;22.35;59.96;100305.44;5075875;27;48066;-84
2022/08/15 00:55:28;;;;;;;;;16.50;15.25;;;;;22.22;60.00;100298.50;5075435;27;45983;-83
2022/08/15 00:57:54;;;;;;;;;21.00;15.00;;;;;22.16;60.22;100292.88;5075597;27;45418;-83
2022/08/15 01:00:24;;;;;;;;;18.25;15.50;;;;;22.11;59.78;100293.25;5075926;28;45332;-84
2022/08/15 01:02:50;;;;;;;;;15.75;14.25;;;;;22.15;60.10;100297.31;5076672;27;46351;-83
2022/08/15 01:05:16;;;;;;;;;15.50;15.50;;;;;22.13;60.22;100295.78;5076294;27;66607;-83
2022/08/15 01:07:43;;;;;;;;;19.00;16.00;;;;;21.99;60.37;100284.53;5075556;27;45426;-83
2022/08/15 01:10:09;;;;;;;;;16.00;16.00;;;;;22.02;60.31;100297.50;5076539;28;45235;-83
2022/08/15 01:12:37;;;;;;;;;17.50;15.50;;;;;22.04;60.26;100303.53;5075430;28;46591;-83
2022/08/15 01:15:08;;;;;;;;;25.00;14.50;;;;;22.05;60.33;100299.09;5075994;27;45441;-83
2022/08/15 01:17:33;;;;;;;;;14.75;13.25;;;;;22.08;60.53;100298.81;5075414;28;45293;-83
2022/08/15 01:20:14;;;;;;;;;15.75;14.00;;;;;22.12;60.21;100310.00;5058499;28;45450;-83
2022/08/15 01:23:14;;;;;;;;;13.25;13.25;;;;;22.14;59.82;100302.75;5075438;27;45424;-84
2022/08/15 01:25:46;;;;;;;;;14.00;13.75;;;;;22.13;59.85;100295.78;5075700;27;45816;-84
2022/08/15 01:28:33;;;;;;;;;14.00;13.00;;;;;22.18;59.66;100301.53;5075080;28;45464;-83
2022/08/15 01:31:06;;;;;;;;;19.25;15.25;;;;;22.15;60.40;100299.13;5075375;27;45327;-83
2022/08/15 01:33:38;;;;;;;;;16.50;14.75;;;;;22.08;60.47;100298.81;5075684;28;45450;-83
2022/08/15 01:36:04;;;;;;;;;13.25;12.75;;;;;22.06;60.20;100298.09;5075691;28;45473;-83
2022/08/15 01:38:39;;;;;;;;;12.75;11.25;;;;;22.02;60.19;100286.09;5076626;27;45294;-83
2022/08/15 01:41:13;;;;;;;;;19.50;16.00;;;;;22.02;60.19;100280.78;5074747;28;45440;-83
2022/08/15 01:43:48;;;;;;;;;16.25;15.50;;;;;22.09;60.12;100294.38;5076246;27;45526;-84
2022/08/15 01:46:14;;;;;;;;;18.25;15.75;;;;;22.00;60.08;100288.03;5076615;27;45795;-84
2022/08/15 01:48:48;;;;;;;;;16.25;15.25;;;;;22.03;59.48;100298.38;5075547;28;45381;-83
2022/08/15 01:51:15;;;;;;;;;13.00;13.00;;;;;21.96;60.07;100279.50;5075243;28;45425;-83
2022/08/15 01:53:47;;;;;;;;;16.50;14.75;;;;;21.99;60.57;100288.97;5076480;27;46168;-83
2022/08/15 01:56:20;;;;;;;;;15.50;14.75;;;;;21.94;59.93;100289.38;5057950;28;45798;-84
2022/08/15 01:58:46;;;;;;;;;17.75;16.75;;;;;21.95;60.33;100288.44;5075873;27;45323;-83
2022/08/15 02:01:17;;;;;;;;;18.50;16.50;;;;;21.91;60.17;100284.31;5077006;27;45295;-84
2022/08/15 02:03:45;;;;;;;;;19.75;15.50;;;;;21.90;60.41;100276.50;5076077;27;45516;-84
2022/08/15 02:06:14;;;;;;;;;19.75;16.75;;;;;21.88;60.60;100281.97;5074991;28;45369;-83
2022/08/15 02:08:41;;;;;;;;;17.50;15.50;;;;;21.86;60.15;100283.91;5075242;27;45432;-83
2022/08/15 02:11:09;;;;;;;;;21.50;16.25;;;;;21.80;60.49;100273.78;5075953;27;45435;-83
2022/08/15 02:13:36;;;;;;;;;19.50;16.25;;;;;21.80;60.63;100276.44;5074917;27;46693;-83
2022/08/15 02:16:01;;;;;;;;;18.75;17.00;;;;;21.73;60.21;100278.78;5074691;27;45330;-83
2022/08/15 02:18:27;;;;;;;;;19.75;19.00;;;;;21.73;60.78;100281.44;5076259;27;45339;-83
2022/08/15 02:20:54;;;;;;;;;19.00;18.00;;;;;21.69;60.31;100273.84;5074609;28;45365;-84
2022/08/15 02:23:20;;;;;;;;;16.50;15.25;;;;;21.64;60.52;100264.47;5074534;27;45552;-84
2022/08/15 02:25:49;;;;;;;;;21.50;18.00;;;;;21.58;60.91;100265.00;5075271;27;45396;-83
2022/08/15 02:28:15;;;;;;;;;16.00;15.00;;;;;21.57;60.91;100262.47;5075295;28;45532;-84
2022/08/15 02:30:42;;;;;;;;;24.00;19.00;;;;;21.57;60.56;100265.94;5076000;27;57375;-83
2022/08/15 02:33:09;;;;;;;;;20.50;17.25;;;;;21.54;61.23;100274.13;5077728;27;47201;-83
2022/08/15 02:35:34;;;;;;;;;19.75;17.50;;;;;21.45;60.91;100251.06;5077730;28;58033;-83
2022/08/15 02:38:04;;;;;;;;;21.25;17.00;;;;;21.56;60.66;100256.34;5079240;27;45437;-83
2022/08/15 02:40:30;;;;;;;;;18.50;17.00;;;;;21.56;60.96;100255.47;5079284;27;45286;-83
2022/08/15 02:42:56;;;;;;;;;18.00;18.00;;;;;21.55;60.85;100256.47;5079155;27;47405;-84
2022/08/15 02:45:21;;;;;;;;;20.25;17.00;;;;;21.58;60.43;100250.91;5078129;27;45277;-83
2022/08/15 02:47:47;;;;;;;;;16.25;14.25;;;;;21.59;60.49;100249.94;5079456;27;45304;-82
2022/08/15 02:50:15;;;;;;;;;19.25;17.25;;;;;21.57;60.53;100246.59;5078822;27;56953;-83
2022/08/15 02:52:42;;;;;;;;;18.00;16.00;;;;;21.60;59.91;100243.66;5077951;27;46566;-83
2022/08/15 02:55:09;;;;;;;;;17.25;16.25;;;;;21.55;60.03;100243.22;5077079;27;45475;-82
2022/08/15 02:57:35;;;;;;;;;18.25;17.00;;;;;21.57;60.29;100246.59;5079481;27;45967;-84
2022/08/15 03:00:01;;;;;;;;;16.50;15.25;;;;;21.53;60.34;100248.66;5077341;27;63226;-84
2022/08/15 03:02:27;;;;;;;;;16.00;16.00;;;;;21.47;60.58;100238.56;5078148;28;45432;-84
2022/08/15 03:04:52;;;;;;;;;17.25;16.50;;;;;21.45;60.69;100245.78;5076946;27;59841;-83
2022/08/15 03:07:17;;;;;;;;;17.50;15.00;;;;;21.44;60.84;100249.38;5077260;28;62757;-83
2022/08/15 03:09:43;;;;;;;;;18.50;15.75;;;;;21.39;61.01;100246.25;5075931;27;69444;-82
2022/08/15 03:12:12;;;;;;;;;17.00;15.50;;;;;21.27;60.21;100233.06;5077754;27;45623;-83
2022/08/15 03:14:38;;;;;;;;;19.75;17.75;;;;;21.34;60.79;100237.84;5077584;27;45301;-83
2022/08/15 03:17:04;;;;;;;;;18.50;17.25;;;;;21.33;60.94;100241.47;5078360;28;56554;-83
2022/08/15 03:19:29;;;;;;;;;21.25;18.00;;;;;21.33;60.48;100241.47;5077252;27;45302;-83
2022/08/15 03:21:55;;;;;;;;;17.50;17.00;;;;;21.31;60.66;100246.88;5076830;28;58854;-83
2022/08/15 03:24:22;;;;;;;;;17.50;16.25;;;;;21.27;60.46;100242.81;5076871;27;45362;-83
2022/08/15 03:26:48;;;;;;;;;19.25;16.50;;;;;21.27;60.42;100243.66;5077390;28;45488;-83
2022/08/15 03:29:16;;;;;;;;;17.75;16.25;;;;;21.29;60.65;100248.00;5078004;27;45412;-84
2022/08/15 03:31:43;;;;;;;;;20.50;16.25;;;;;21.30;60.29;100252.31;5076502;28;46246;-83
2022/08/15 03:34:09;;;;;;;;;17.75;16.75;;;;;21.30;60.33;100247.00;5076762;28;46083;-83
2022/08/15 03:36:36;;;;;;;;;17.75;15.75;;;;;21.28;60.36;100247.13;5078508;27;45418;-82
2022/08/15 03:39:03;;;;;;;;;21.00;17.75;;;;;21.28;60.63;100244.47;5078390;27;45405;-83
2022/08/15 03:41:29;;;;;;;;;19.25;16.00;;;;;21.20;60.50;100238.97;5078517;27;46561;-83
2022/08/15 03:43:54;;;;;;;;;15.25;15.00;;;;;21.20;60.83;100244.28;5077298;27;45369;-83
2022/08/15 03:46:21;;;;;;;;;15.25;13.50;;;;;21.15;60.12;100239.34;5078584;27;45366;-83
2022/08/15 03:48:53;;;;;;;;;17.00;15.50;;;;;21.14;60.57;100236.84;5077543;28;45333;-83
2022/08/15 03:51:20;;;;;;;;;15.25;15.25;;;;;21.14;60.66;100242.13;5077969;27;45483;-83
2022/08/15 03:53:49;;;;;;;;;17.50;14.50;;;;;21.07;60.65;100231.19;5076096;27;46253;-83
2022/08/15 03:56:22;;;;;;;;;18.00;15.00;;;;;21.11;60.44;100240.56;5077269;28;45460;-84
2022/08/15 03:58:49;;;;;;;;;17.25;14.25;;;;;21.10;60.49;100233.63;5076804;27;45297;-82
2022/08/15 04:01:20;;;;;;;;;18.00;15.25;;;;;21.07;60.27;100232.03;5076975;27;45550;-84
2022/08/15 04:03:47;;;;;;;;;15.25;13.75;;;;;21.08;60.18;100232.91;5078456;27;45398;-83
2022/08/15 04:06:16;;;;;;;;;14.50;13.50;;;;;21.08;60.34;100224.97;5076674;28;45377;-83
2022/08/15 04:08:43;;;;;;;;;18.00;16.00;;;;;21.04;60.63;100227.00;5078100;27;45469;-83
2022/08/15 04:11:08;;;;;;;;;13.25;13.00;;;;;21.08;60.19;100224.97;5076547;27;46896;-83
2022/08/15 04:13:35;;;;;;;;;14.50;13.25;;;;;21.00;60.15;100207.03;5059382;28;45441;-83
2022/08/15 04:16:02;;;;;;;;;17.50;14.50;;;;;21.03;60.54;100219.19;5076824;27;45544;-83
2022/08/15 04:18:28;;;;;;;;;17.25;17.25;;;;;20.96;60.63;100218.00;5060021;28;45347;-83
2022/08/15 04:20:55;;;;;;;;;16.75;14.25;;;;;20.87;60.85;100204.53;5075985;28;45420;-84
2022/08/15 04:23:21;;;;;;;;;16.50;13.50;;;;;20.84;61.25;100218.03;5078116;27;45284;-83
2022/08/15 04:25:46;;;;;;;;;13.50;12.50;;;;;20.77;60.73;100205.44;5077700;27;45334;-82
2022/08/15 04:28:17;;;;;;;;;15.25;13.00;;;;;20.81;60.85;100209.50;5076543;28;45327;-83
2022/08/15 04:30:44;;;;;;;;;18.50;15.50;;;;;20.85;61.00;100210.94;5077843;27;46391;-83
2022/08/15 04:33:14;;;;;;;;;19.25;16.00;;;;;20.79;60.81;100201.69;5076087;28;45350;-83
2022/08/15 04:35:42;;;;;;;;;17.50;15.75;;;;;20.79;60.81;100220.19;5075965;28;45354;-83
2022/08/15 04:38:08;;;;;;;;;19.50;16.50;;;;;20.72;60.87;100221.66;5076859;28;45298;-83
2022/08/15 04:40:36;;;;;;;;;16.00;16.00;;;;;20.73;61.15;100225.13;5059085;28;67232;-82
2022/08/15 04:43:02;;;;;;;;;18.00;15.00;;;;;20.73;61.02;100215.41;5076049;27;45824;-83
2022/08/15 04:45:30;;;;;;;;;16.50;13.00;;;;;20.74;60.75;100211.78;5076008;28;45413;-83
2022/08/15 04:47:56;;;;;;;;;20.25;16.75;;;;;20.71;60.95;100211.19;5076352;28;45454;-83
2022/08/15 04:50:22;;;;;;;;;16.50;13.00;;;;;20.73;61.37;100214.53;5076598;27;47544;-83
2022/08/15 04:52:51;;;;;;;;;13.75;12.50;;;;;20.71;61.27;100209.41;5076448;27;45337;-82
2022/08/15 04:55:17;;;;;;;;;17.00;15.25;;;;;20.69;61.17;100206.03;5077190;27;45419;-82
2022/08/15 04:57:43;;;;;;;;;16.25;14.00;;;;;20.71;60.96;100198.81;5076955;27;45305;-82
2022/08/15 05:00:11;;;;;;;;;15.75;15.00;;;;;20.75;60.92;100202.06;5075369;27;46378;-82
2022/08/15 05:02:37;;;;;;;;;16.50;15.25;;;;;20.77;60.79;100208.91;5075924;27;45437;-83
2022/08/15 05:05:04;;;;;;;;;18.50;16.75;;;;;20.75;60.62;100205.53;5076040;27;45269;-83
2022/08/15 05:07:30;;;;;;;;;15.75;13.25;;;;;20.67;60.73;100187.66;5077350;27;45248;-82
2022/08/15 05:09:56;;;;;;;;;14.75;13.25;;;;;20.76;60.90;100198.44;5075960;28;73434;-82
2022/08/15 05:12:23;;;;;;;;;15.50;14.00;;;;;20.72;61.06;100181.97;5077115;27;45238;-82
2022/08/15 05:14:48;;;;;;;;;16.50;13.50;;;;;20.72;60.94;100183.78;5075759;27;45408;-82
2022/08/15 05:17:14;;;;;;;;;17.00;13.75;;;;;20.75;60.89;100187.03;5076905;28;45377;-83
2022/08/15 05:19:39;;;;;;;;;15.25;13.00;;;;;20.82;60.73;100190.00;5074215;27;74035;-83
2022/08/15 05:22:05;;;;;;;;;15.25;13.00;;;;;20.81;60.47;100181.25;5076411;28;45472;-82
2022/08/15 05:24:30;;;;;;;;;15.00;12.75;;;;;20.83;60.91;100181.94;5076634;27;45642;-82
2022/08/15 05:26:55;;;;;;;;;17.00;13.00;;;;;20.79;60.85;100180.53;5074600;27;59374;-83
2022/08/15 05:29:21;;;;;;;;;17.25;15.00;;;;;20.80;60.92;100194.56;5058812;27;46982;-83
2022/08/15 05:31:46;;;;;;;;;12.50;11.25;;;;;20.79;61.02;100184.97;5057209;28;71655;-82
2022/08/15 05:34:11;;;;;;;;;16.25;14.25;;;;;20.77;61.05;100185.09;5074290;28;57878;-83
2022/08/15 05:36:37;;;;;;;;;15.00;13.00;;;;;20.83;60.81;100189.88;5074327;27;66305;-83
2022/08/15 05:39:21;;;;;;;;;12.00;12.00;;;;;20.88;60.81;100189.53;5076857;28;46166;-83
2022/08/15 05:42:01;;;;;;;;;12.75;11.75;;;;;20.93;60.43;100184.72;5077044;27;45510;-83
2022/08/15 05:44:40;;;;;;;;;15.25;14.00;;;;;20.93;60.53;100178.56;5077002;27;45292;-83
2022/08/15 05:47:18;;;;;;;;;12.00;12.00;;;;;20.96;60.58;100178.31;5074896;28;45434;-83
2022/08/15 05:50:06;;;;;;;;;13.75;12.25;;;;;20.95;60.42;100181.91;5075920;28;46610;-83
2022/08/15 05:52:47;;;;;;;;;17.25;15.50;;;;;20.93;60.21;100187.34;5074714;27;45796;-83
2022/08/15 05:55:28;;;;;;;;;20.75;14.50;;;;;20.93;60.39;100181.22;5075914;27;45332;-83
2022/08/15 05:58:03;;;;;;;;;14.75;14.25;;;;;20.93;60.93;100191.78;5076427;27;45388;-83
2022/08/15 06:00:29;;;;;;;;;18.75;16.00;;;;;20.88;60.54;100184.25;5075840;28;47341;-83
2022/08/15 06:03:16;;;;;;;;;18.00;15.25;;;;;20.80;60.67;100184.00;5075385;27;45380;-83
2022/08/15 06:05:45;;;;;;;;;16.50;14.25;;;;;20.81;60.95;100188.34;5076886;27;45413;-83
2022/08/15 06:08:17;;;;;;;;;19.25;16.50;;;;;20.86;60.73;100196.75;5078324;27;45382;-83
2022/08/15 06:10:49;;;;;;;;;14.50;14.00;;;;;20.84;60.96;100202.16;5078314;28;45467;-83
2022/08/15 06:13:22;;;;;;;;;13.25;12.25;;;;;20.82;60.93;100197.94;5078156;27;45350;-83
2022/08/15 06:15:53;;;;;;;;;11.00;9.00;;;;;20.81;60.99;100191.81;5078374;28;45281;-83
2022/08/15 06:18:20;;;;;;;;;20.75;16.00;;;;;20.80;60.92;100192.78;5079254;27;45302;-83
2022/08/15 06:20:52;;;;;;;;;16.25;14.25;;;;;20.76;60.97;100186.03;5077889;28;46188;-83
2022/08/15 06:23:37;;;;;;;;;17.50;15.25;;;;;20.81;61.14;100194.47;5079201;27;45838;-82
2022/08/15 06:26:21;;;;;;;;;18.00;12.75;;;;;20.86;61.10;100194.09;5077926;27;45400;-83
2022/08/15 06:28:54;;;;;;;;;15.25;12.75;;;;;20.85;60.99;100193.25;5079406;27;45294;-83
2022/08/15 06:31:28;;;;;;;;;14.00;13.50;;;;;20.91;60.97;100188.44;5077189;27;47021;-83
2022/08/15 06:34:21;;;;;;;;;15.50;14.75;;;;;20.93;61.54;100194.44;5077608;27;45522;-83
2022/08/15 06:36:54;;;;;;;;;15.75;12.25;;;;;20.93;61.17;100191.78;5077805;27;45317;-83
2022/08/15 06:39:58;;;;;;;;;13.50;13.00;;;;;20.93;61.15;100195.28;5077809;27;45402;-83
2022/08/15 06:42:39;;;;;;;;;14.50;13.00;;;;;20.96;61.26;100192.38;5077489;27;48497;-84
2022/08/15 06:45:19;;;;;;;;;18.50;14.00;;;;;20.94;61.39;100183.72;5077395;27;46042;-84
2022/08/15 06:47:45;;;;;;;;;17.00;14.75;;;;;21.05;61.42;100182.88;5077265;28;45191;-84
2022/08/15 06:50:24;;;;;;;;;17.50;14.25;;;;;21.12;61.01;100186.69;5077280;28;50953;-83
2022/08/15 06:52:59;;;;;;;;;19.00;16.75;;;;;21.15;60.55;100190.88;5077073;27;47320;-84
2022/08/15 06:55:26;;;;;;;;;16.00;15.75;;;;;21.14;60.53;100176.81;5077303;27;45405;-84
2022/08/15 06:58:06;;;;;;;;;17.50;14.00;;;;;21.15;60.79;100167.91;5077570;27;45409;-85
2022/08/15 07:00:42;;;;;;;;;14.75;12.25;;;;;21.24;61.21;100190.94;5073546;27;45423;-86
2022/08/15 07:03:30;;;;;;;;;18.75;15.25;;;;;21.26;60.48;100189.03;5056858;28;46063;-87
2022/08/15 07:05:57;;;;;;;;;16.75;13.25;;;;;21.26;60.60;100193.47;5056967;28;45382;-88
2022/08/15 07:08:33;;;;;;;;;15.00;13.00;;;;;21.30;61.20;100194.06;5057717;28;45284;-88
2022/08/15 07:11:14;;;;;;;;;14.00;13.50;;;;;21.34;60.44;100195.50;5058734;28;45419;-90
2022/08/15 07:13:59;;;;;;;;;17.00;14.75;;;;;21.36;60.13;100189.13;5059239;28;46463;-94
2022/08/15 07:16:43;;;;;;;;;13.50;13.00;;;;;21.41;60.34;100194.03;5057873;28;45962;-92
2022/08/15 07:19:10;;;;;;;;;18.75;16.25;;;;;21.49;60.01;100188.97;5058688;28;45409;-90
2022/08/15 07:21:36;;;;;;;;;14.25;11.75;;;;;21.54;59.82;100191.22;5060910;28;45453;-84
2022/08/15 07:24:08;;;;;;;;;13.00;12.75;;;;;21.59;59.85;100194.34;5066283;27;45368;-82
2022/08/15 07:27:12;;;;;;;;;14.75;13.25;;;;;21.61;59.30;100193.22;5085432;27;46012;-84
2022/08/15 07:29:37;;;;;;;;;14.75;12.00;;;;;21.69;59.95;100207.63;5077738;27;45283;-83
2022/08/15 07:32:14;;;;;;;;;13.33;12.67;;;;;21.72;59.37;100202.91;5076423;27;45369;-82
2022/08/15 07:35:06;;;;;;;;;15.25;12.00;;;;;21.73;59.12;100206.41;5064324;28;47283;-86
2022/08/15 07:37:34;;;;;;;;;12.75;12.00;;;;;21.78;59.00;100209.50;5075580;28;45672;-84
2022/08/15 07:40:17;;;;;;;;;14.75;13.25;;;;;21.78;59.28;100204.22;5076955;27;45403;-83
2022/08/15 07:42:44;;;;;;;;;12.25;10.00;;;;;21.79;58.79;100197.97;5061744;28;45561;-87
2022/08/15 07:45:14;;;;;;;;;16.00;13.50;;;;;21.83;59.22;100197.56;5076739;27;47469;-87
2022/08/15 07:47:54;;;;;;;;;16.50;13.25;;;;;21.87;58.76;100194.66;5069994;27;45385;-87
2022/08/15 07:50:31;;;;;;;;;16.75;12.25;;;;;21.96;59.10;100201.81;5062024;28;45567;-88
2022/08/15 07:53:04;;;;;;;;;17.00;13.25;;;;;21.99;58.68;100197.09;5063508;28;45447;-89
2022/08/15 07:55:32;;;;;;;;;9.75;9.00;;;;;22.02;58.22;100190.69;5073296;28;47032;-89
2022/08/15 07:58:02;;;;;;;;;13.50;11.00;;;;;22.10;57.21;100196.19;5057296;28;45559;-89
2022/08/15 08:00:30;;;;;;;;;15.00;11.00;;;;;22.17;57.28;100193.81;5090394;27;45290;-88
2022/08/15 08:03:09;;;;;;;;;12.75;9.50;;;;;22.25;56.35;100204.63;5064696;27;45480;-85
2022/08/15 08:05:57;;;;;;;;;9.50;9.50;;;;;22.27;56.41;100194.75;5079620;27;46997;-85
2022/08/15 08:08:27;;;;;;;;;11.00;9.00;;;;;22.30;55.78;100196.28;5078464;27;45847;-88
2022/08/15 08:10:59;;;;;;;;;10.50;9.00;;;;;22.34;55.06;100197.69;5058427;28;45461;-88
2022/08/15 08:13:41;;;;;;;;;14.00;10.25;;;;;22.37;56.02;100210.69;5060279;28;45460;-89
2022/08/15 08:16:19;;;;;;;;;10.00;10.00;;;;;22.36;55.65;100193.94;5060454;28;47492;-89
2022/08/15 08:18:57;;;;;;;;;9.50;8.75;;;;;22.43;55.59;100202.19;5077496;28;45389;-90
2022/08/15 08:21:33;;;;;;;;;14.25;10.50;;;;;22.52;55.33;100196.09;5077768;28;45374;-90
2022/08/15 08:24:04;;;;;;;;;8.75;8.00;;;;;22.59;55.21;100194.56;5077458;28;45467;-91
2022/08/15 08:26:36;;;;;;;;;10.25;8.00;;;;;22.65;54.98;100197.66;5077342;28;46521;-90
2022/08/15 08:29:20;;;;;;;;;9.25;9.25;;;;;22.69;55.20;100201.72;5076076;28;45334;-91
2022/08/15 08:32:04;;;;;;;;;9.50;8.50;;;;;22.75;54.98;100190.56;5078352;27;45270;-91
2022/08/15 08:34:53;;;;;;;;;7.50;7.50;;;;;22.87;55.00;100201.91;5057487;28;45423;-89
2022/08/15 08:37:32;;;;;;;;;10.75;10.00;;;;;22.99;54.22;100200.78;5100902;27;46275;-89
2022/08/15 08:43:26;;;;;;;;;9.50;8.50;;;;;23.16;54.15;100200.16;5002469;28;45491;-89
2022/08/15 08:46:10;;;;;;;;;10.00;7.50;;;;;23.35;53.63;100194.00;5016290;28;45351;-89
2022/08/15 08:48:41;;;;;;;;;11.25;9.50;;;;;23.51;53.63;100204.06;5015868;28;48639;-89
2022/08/15 08:51:14;;;;;;;;;7.50;6.50;;;;;23.61;52.67;100200.56;5015922;28;46051;-90
2022/08/15 08:53:52;;;;;;;;;11.25;10.50;;;;;23.72;52.66;100206.56;5015280;28;45480;-90
2022/08/15 08:56:22;;;;;;;;;12.00;10.00;;;;;23.77;52.01;100211.44;5016167;28;45568;-90
2022/08/15 08:58:53;;;;;;;;;9.00;8.50;;;;;23.86;52.25;100210.59;4998883;28;48577;-90
2022/08/15 09:01:24;;;;;;;;;12.00;9.75;;;;;24.05;52.02;100206.22;5015537;28;45722;-93
2022/08/15 09:03:54;;;;;;;;;7.75;7.75;;;;;24.13;51.08;100201.88;4999695;28;45423;-91
2022/08/15 09:06:24;;;;;;;;;7.00;7.00;;;;;24.22;51.46;100217.91;5000105;28;45334;-90
2022/08/15 09:08:55;;;;;;;;;10.00;10.00;;;;;24.18;50.72;100219.19;4999134;28;48408;-90
2022/08/15 09:11:24;;;;;;;;;7.00;7.00;;;;;24.17;50.70;100217.53;5014870;28;45846;-91
2022/08/15 09:13:50;;;;;;;;;7.75;7.75;;;;;24.22;50.74;100209.94;4998994;28;45494;-90
2022/08/15 09:16:21;;;;;;;;;8.50;8.50;;;;;24.37;50.12;100211.16;4998860;28;45364;-90
2022/08/15 09:18:52;;;;;;;;;8.25;7.25;;;;;24.44;50.77;100217.56;5005010;28;47080;-90
2022/08/15 09:21:18;;;;;;;;;7.00;7.00;;;;;24.62;50.18;100211.47;5056561;28;45821;-90
2022/08/15 09:23:45;;;;;;;;;9.25;9.00;;;;;24.78;49.67;100209.00;5039311;28;52378;-90
2022/08/15 09:26:29;;;;;;;;;11.00;9.75;;;;;24.92;49.92;100211.19;5055761;28;45315;-90
2022/08/15 09:29:22;;;;;;;;;8.75;8.75;;;;;24.91;49.38;100208.66;5058673;28;48409;-91
2022/08/15 09:32:10;;;;;;;;;11.25;9.00;;;;;24.99;49.85;100203.41;5059228;27;45790;-90
2022/08/15 09:34:53;;;;;;;;;10.25;9.00;;;;;25.06;49.11;100208.97;5076169;28;45349;-90
2022/08/15 09:37:43;;;;;;;;;8.50;7.50;;;;;25.06;48.88;100212.47;5077586;27;45371;-90
2022/08/15 09:40:27;;;;;;;;;7.00;7.00;;;;;25.11;48.25;100209.34;5076101;28;48218;-91
2022/08/15 09:42:55;;;;;;;;;8.25;7.50;;;;;25.09;48.00;100216.63;5076331;28;45707;-90
2022/08/15 09:45:34;;;;;;;;;8.75;8.75;;;;;25.14;48.04;100210.88;5077318;27;45452;-90
2022/08/15 09:48:34;;;;;;;;;8.25;7.00;;;;;25.23;48.19;100210.81;5077312;27;45443;-89
2022/08/15 09:51:12;;;;;;;;;8.50;7.25;;;;;25.45;48.04;100206.84;5075989;28;47385;-89
2022/08/15 09:53:55;;;;;;;;;7.50;7.00;;;;;25.65;47.49;100207.53;5075711;28;45659;-90
2022/08/15 09:56:23;;;;;;;;;8.00;8.00;;;;;25.85;47.18;100196.66;5076379;27;45363;-90
2022/08/15 09:59:10;;;;;;;;;8.75;8.75;;;;;26.05;46.56;100205.31;5076937;28;45683;-90
2022/08/15 10:01:44;;;;;;;;;8.25;8.00;;;;;26.19;46.67;100202.06;5076796;27;46464;-90
2022/08/15 10:04:12;;;;;;;;;9.50;8.00;;;;;26.29;46.70;100203.78;5077433;27;45355;-90
2022/08/15 10:07:02;;;;;;;;;9.75;7.25;;;;;26.24;45.97;100198.91;5077523;27;45472;-89
2022/08/15 10:09:27;;;;;;;;;7.00;6.00;;;;;26.08;45.88;100208.50;5076733;28;45549;-90
2022/08/15 10:12:09;;;;;;;;;9.00;8.00;;;;;25.87;46.01;100202.66;5076969;27;45459;-90
2022/08/15 10:14:52;;;;;;;;;10.00;9.25;;;;;25.67;46.20;100202.03;5076941;27;45812;-90
2022/08/15 10:17:33;;;;;;;;;10.75;9.50;;;;;25.46;46.50;100210.34;5077637;27;45273;-90
2022/08/15 10:20:18;;;;;;;;;8.00;7.75;;;;;25.24;46.99;100209.00;5077004;27;45461;-90
2022/08/15 10:22:59;;;;;;;;;8.25;8.25;;;;;25.09;47.40;100201.53;5075544;27;48382;-90
2022/08/15 10:25:24;;;;;;;;;14.00;8.00;;;;;25.03;48.08;100206.59;5077302;27;45813;-90
2022/08/15 10:28:14;;;;;;;;;9.00;8.00;;;;;24.91;48.25;100206.81;5077209;28;45431;-90
2022/08/15 10:30:45;;;;;;;;;8.00;8.00;;;;;24.86;48.96;100205.59;5074784;27;45588;-92
2022/08/15 10:33:42;;;;;;;;;6.25;6.25;;;;;24.84;49.45;100207.56;5076301;27;47248;-92
2022/08/15 10:36:14;;;;;;;;;5.00;4.00;;;;;24.89;49.80;100206.13;5075139;28;45798;-91
2022/08/15 10:38:44;;;;;;;;;5.00;5.00;;;;;25.09;50.17;100206.00;5079008;28;45262;-94
2022/08/15 10:41:21;;;;;;;;;4.75;4.00;;;;;25.39;48.88;100206.63;5077545;28;45185;-92
2022/08/15 10:44:10;;;;;;;;;3.00;1.75;;;;;25.64;48.90;100213.00;5074850;27;46390;-92
2022/08/15 10:46:44;;;;;;;;;3.00;3.00;;;;;25.71;48.01;100205.22;5075588;28;45387;-91
2022/08/15 10:49:35;;;;;;;;;4.00;4.00;;;;;25.91;48.30;100219.19;5057193;28;45400;-89
2022/08/15 10:52:18;;;;;;;;;5.25;4.00;;;;;25.93;48.46;100210.06;5060506;28;45349;-87
2022/08/15 10:55:05;;;;;;;;;2.75;2.75;;;;;25.85;48.13;100216.16;5086170;27;45539;-87
2022/08/15 10:57:39;;;;;;;;;2.00;2.00;;;;;25.72;48.26;100210.38;5078291;28;45776;-89
2022/08/15 11:00:07;;;;;;;;;5.50;4.00;;;;;25.54;49.27;100207.78;5090922;27;45310;-85
2022/08/15 11:02:46;;;;;;;;;6.25;4.00;;;;;25.32;49.35;100218.91;5070816;27;45422;-91
2022/08/15 11:05:14;;;;;;;;;3.50;3.50;;;;;25.15;50.06;100210.72;5048631;27;47226;-86
2022/08/15 11:07:51;;;;;;;;;4.75;4.50;;;;;25.07;50.21;100210.63;5097542;27;45251;-87
2022/08/15 11:10:20;;;;;;;;;4.00;4.00;;;;;25.03;50.12;100211.94;5061748;28;45314;-85
2022/08/15 11:12:50;;;;;;;;;3.75;3.75;;;;;25.04;50.24;100216.28;5056920;28;45306;-84
2022/08/15 11:15:27;;;;;;;;;3.50;2.00;;;;;24.98;50.59;100217.72;5090853;27;45388;-86
2022/08/15 11:18:00;;;;;;;;;3.75;3.75;;;;;24.86;50.45;100221.56;5058919;28;45230;-86
2022/08/15 11:20:36;;;;;;;;;5.00;5.00;;;;;24.77;50.85;100217.97;5073692;27;45290;-85
2022/08/15 11:23:01;;;;;;;;;5.50;5.00;;;;;24.86;51.42;100221.56;5056920;28;45490;-85
2022/08/15 11:25:33;;;;;;;;;7.00;5.50;;;;;25.06;50.78;100216.97;5090627;27;48091;-85
2022/08/15 11:28:05;;;;;;;;;3.75;3.75;;;;;25.40;50.65;100229.63;5075137;28;45313;-86
2022/08/15 11:30:34;;;;;;;;;5.00;4.25;;;;;25.80;50.14;100223.78;5076142;27;45479;-86
2022/08/15 11:33:23;;;;;;;;;4.00;4.00;;;;;26.23;49.40;100218.59;5076854;27;45682;-85
2022/08/15 11:36:02;;;;;;;;;5.00;4.25;;;;;26.70;48.53;100227.97;5077181;27;47312;-84
2022/08/15 11:38:30;;;;;;;;;4.00;4.00;;;;;27.34;47.14;100221.13;5062789;28;45584;-86
2022/08/15 11:40:55;;;;;;;;;5.00;5.00;;;;;27.91;46.71;100219.47;5073881;28;45550;-86